sensor_id;sensor_type;location;lat;lon;timestamp;P1;durP1;ratioP1;P2;durP2;ratioP2
36651;SDS011;53334;51.976;20.144;2023-02-01T00:02:14;3.78;;;1.70;;
36651;SDS011;53334;51.976;20.144;2023-02-01T00:04:47;6.95;;;1.73;;
36651;SDS011;53334;51.976;20.144;2023-02-01T00:07:22;4.95;;;1.50;;
36651;SDS011;53334;51.976;20.144;2023-02-01T00:09:55;3.10;;;1.48;;
36651;SDS011;53334;51.976;20.144;2023-02-01T00:12:29;1.75;;;1.50;;
36651;SDS011;53334;51.976;20.144;2023-02-01T00:15:02;2.60;;;1.73;;
36651;SDS011;53334;51.976;20.144;2023-02-01T00:17:36;4.00;;;2.03;;
36651;SDS011;53334;51.976;20.144;2023-02-01T00:20:10;3.17;;;1.42;;
36651;SDS011;53334;51.976;20.144;2023-02-01T00:22:45;3.28;;;1.50;;
36651;SDS011;53334;51.976;20.144;2023-02-01T00:25:18;5.38;;;1.45;;
36651;SDS011;53334;51.976;20.144;2023-02-01T00:27:51;3.67;;;1.85;;
36651;SDS011;53334;51.976;20.144;2023-02-01T00:30:25;1.73;;;1.30;;
36651;SDS011;53334;51.976;20.144;2023-02-01T00:32:58;3.92;;;1.30;;
36651;SDS011;53334;51.976;20.144;2023-02-01T00:35:34;1.55;;;1.20;;
36651;SDS011;53334;51.976;20.144;2023-02-01T00:38:08;1.63;;;1.38;;
36651;SDS011;53334;51.976;20.144;2023-02-01T00:40:42;5.13;;;1.25;;
36651;SDS011;53334;51.976;20.144;2023-02-01T00:43:15;6.05;;;1.75;;
36651;SDS011;53334;51.976;20.144;2023-02-01T00:45:48;2.20;;;1.33;;
36651;SDS011;53334;51.976;20.144;2023-02-01T00:48:22;6.80;;;1.98;;
36651;SDS011;53334;51.976;20.144;2023-02-01T00:50:58;4.13;;;1.30;;
36651;SDS011;53334;51.976;20.144;2023-02-01T00:53:33;1.80;;;1.02;;
36651;SDS011;53334;51.976;20.144;2023-02-01T00:56:07;3.33;;;1.25;;
36651;SDS011;53334;51.976;20.144;2023-02-01T01:01:17;1.67;;;1.10;;
36651;SDS011;53334;51.976;20.144;2023-02-01T01:03:53;3.25;;;1.48;;
36651;SDS011;53334;51.976;20.144;2023-02-01T01:06:27;3.78;;;1.15;;
36651;SDS011;53334;51.976;20.144;2023-02-01T01:09:04;2.83;;;1.55;;
36651;SDS011;53334;51.976;20.144;2023-02-01T01:11:39;1.30;;;1.00;;
36651;SDS011;53334;51.976;20.144;2023-02-01T01:14:13;3.80;;;1.25;;
36651;SDS011;53334;51.976;20.144;2023-02-01T01:16:46;3.20;;;1.27;;
36651;SDS011;53334;51.976;20.144;2023-02-01T01:19:22;1.52;;;1.20;;
36651;SDS011;53334;51.976;20.144;2023-02-01T01:21:55;6.32;;;1.33;;
36651;SDS011;53334;51.976;20.144;2023-02-01T01:24:30;4.72;;;1.63;;
36651;SDS011;53334;51.976;20.144;2023-02-01T01:27:03;7.13;;;1.80;;
36651;SDS011;53334;51.976;20.144;2023-02-01T01:29:36;1.85;;;1.10;;
36651;SDS011;53334;51.976;20.144;2023-02-01T01:32:10;4.20;;;1.05;;
36651;SDS011;53334;51.976;20.144;2023-02-01T01:34:43;1.83;;;1.00;;
36651;SDS011;53334;51.976;20.144;2023-02-01T01:37:16;5.28;;;1.00;;
36651;SDS011;53334;51.976;20.144;2023-02-01T01:39:51;3.00;;;1.13;;
36651;SDS011;53334;51.976;20.144;2023-02-01T01:42:27;2.97;;;1.23;;
36651;SDS011;53334;51.976;20.144;2023-02-01T01:45:00;4.97;;;1.23;;
36651;SDS011;53334;51.976;20.144;2023-02-01T01:47:38;4.68;;;1.08;;
36651;SDS011;53334;51.976;20.144;2023-02-01T01:50:17;2.85;;;1.08;;
36651;SDS011;53334;51.976;20.144;2023-02-01T01:52:54;2.53;;;1.00;;
36651;SDS011;53334;51.976;20.144;2023-02-01T01:55:33;2.75;;;1.60;;
36651;SDS011;53334;51.976;20.144;2023-02-01T01:58:11;11.15;;;1.38;;
36651;SDS011;53334;51.976;20.144;2023-02-01T02:00:48;5.25;;;1.00;;
36651;SDS011;53334;51.976;20.144;2023-02-01T02:03:22;2.53;;;1.00;;
36651;SDS011;53334;51.976;20.144;2023-02-01T02:05:59;2.50;;;0.88;;
36651;SDS011;53334;51.976;20.144;2023-02-01T02:08:35;2.67;;;1.00;;
36651;SDS011;53334;51.976;20.144;2023-02-01T02:11:14;2.88;;;0.98;;
36651;SDS011;53334;51.976;20.144;2023-02-01T02:13:50;5.40;;;1.10;;
36651;SDS011;53334;51.976;20.144;2023-02-01T02:16:40;7.30;;;1.58;;
36651;SDS011;53334;51.976;20.144;2023-02-01T02:19:42;5.53;;;1.08;;
36651;SDS011;53334;51.976;20.144;2023-02-01T02:22:44;6.45;;;1.30;;
36651;SDS011;53334;51.976;20.144;2023-02-01T02:25:36;7.90;;;1.10;;
36651;SDS011;53334;51.976;20.144;2023-02-01T02:31:43;3.35;;;1.20;;
36651;SDS011;53334;51.976;20.144;2023-02-01T02:34:29;3.97;;;1.48;;
36651;SDS011;53334;51.976;20.144;2023-02-01T02:37:09;3.88;;;1.00;;
36651;SDS011;53334;51.976;20.144;2023-02-01T02:39:53;9.05;;;1.48;;
36651;SDS011;53334;51.976;20.144;2023-02-01T02:42:38;2.90;;;1.05;;
36651;SDS011;53334;51.976;20.144;2023-02-01T02:45:37;3.10;;;1.10;;
36651;SDS011;53334;51.976;20.144;2023-02-01T02:48:34;7.03;;;1.33;;
36651;SDS011;53334;51.976;20.144;2023-02-01T02:51:18;4.25;;;1.42;;
36651;SDS011;53334;51.976;20.144;2023-02-01T02:54:15;9.82;;;2.05;;
36651;SDS011;53334;51.976;20.144;2023-02-01T02:57:09;3.47;;;1.17;;
36651;SDS011;53334;51.976;20.144;2023-02-01T03:00:04;5.00;;;1.55;;
36651;SDS011;53334;51.976;20.144;2023-02-01T03:02:57;2.95;;;1.27;;
36651;SDS011;53334;51.976;20.144;2023-02-01T03:05:49;4.68;;;1.20;;
36651;SDS011;53334;51.976;20.144;2023-02-01T03:08:26;3.63;;;1.25;;
36651;SDS011;53334;51.976;20.144;2023-02-01T03:11:01;2.30;;;1.27;;
36651;SDS011;53334;51.976;20.144;2023-02-01T03:13:40;6.75;;;1.40;;
36651;SDS011;53334;51.976;20.144;2023-02-01T03:16:18;2.38;;;0.90;;
36651;SDS011;53334;51.976;20.144;2023-02-01T03:18:59;5.85;;;1.50;;
36651;SDS011;53334;51.976;20.144;2023-02-01T03:21:37;3.22;;;1.38;;
36651;SDS011;53334;51.976;20.144;2023-02-01T03:24:15;6.15;;;1.33;;
36651;SDS011;53334;51.976;20.144;2023-02-01T03:26:51;2.47;;;1.20;;
36651;SDS011;53334;51.976;20.144;2023-02-01T03:29:29;3.15;;;1.08;;
36651;SDS011;53334;51.976;20.144;2023-02-01T03:32:06;3.55;;;1.15;;
36651;SDS011;53334;51.976;20.144;2023-02-01T03:34:41;3.17;;;1.40;;
36651;SDS011;53334;51.976;20.144;2023-02-01T03:37:16;4.10;;;1.10;;
36651;SDS011;53334;51.976;20.144;2023-02-01T03:39:59;2.53;;;1.02;;
36651;SDS011;53334;51.976;20.144;2023-02-01T03:42:37;5.72;;;1.50;;
36651;SDS011;53334;51.976;20.144;2023-02-01T03:45:16;3.10;;;1.30;;
36651;SDS011;53334;51.976;20.144;2023-02-01T03:47:56;5.38;;;1.08;;
36651;SDS011;53334;51.976;20.144;2023-02-01T03:50:32;5.45;;;1.40;;
36651;SDS011;53334;51.976;20.144;2023-02-01T03:53:11;2.88;;;1.10;;
36651;SDS011;53334;51.976;20.144;2023-02-01T03:55:51;1.38;;;1.00;;
36651;SDS011;53334;51.976;20.144;2023-02-01T03:58:26;4.43;;;1.20;;
36651;SDS011;53334;51.976;20.144;2023-02-01T04:00:59;4.75;;;1.33;;
36651;SDS011;53334;51.976;20.144;2023-02-01T04:03:36;4.85;;;1.70;;
36651;SDS011;53334;51.976;20.144;2023-02-01T04:06:09;4.00;;;1.92;;
36651;SDS011;53334;51.976;20.144;2023-02-01T04:08:43;6.20;;;1.65;;
36651;SDS011;53334;51.976;20.144;2023-02-01T04:11:17;4.82;;;1.20;;
36651;SDS011;53334;51.976;20.144;2023-02-01T04:13:51;4.80;;;1.40;;
36651;SDS011;53334;51.976;20.144;2023-02-01T04:16:24;4.47;;;1.50;;
36651;SDS011;53334;51.976;20.144;2023-02-01T04:18:57;4.68;;;1.27;;
36651;SDS011;53334;51.976;20.144;2023-02-01T04:21:31;6.05;;;1.30;;
36651;SDS011;53334;51.976;20.144;2023-02-01T04:24:04;4.95;;;1.27;;
36651;SDS011;53334;51.976;20.144;2023-02-01T04:26:40;4.15;;;1.40;;
36651;SDS011;53334;51.976;20.144;2023-02-01T04:29:14;3.08;;;1.42;;
36651;SDS011;53334;51.976;20.144;2023-02-01T04:31:48;8.20;;;1.80;;
36651;SDS011;53334;51.976;20.144;2023-02-01T04:34:22;2.08;;;1.40;;
36651;SDS011;53334;51.976;20.144;2023-02-01T04:36:56;3.17;;;1.20;;
36651;SDS011;53334;51.976;20.144;2023-02-01T04:39:29;3.72;;;1.20;;
36651;SDS011;53334;51.976;20.144;2023-02-01T04:42:04;3.72;;;1.27;;
36651;SDS011;53334;51.976;20.144;2023-02-01T04:44:37;3.40;;;1.30;;
36651;SDS011;53334;51.976;20.144;2023-02-01T04:47:13;3.75;;;1.38;;
36651;SDS011;53334;51.976;20.144;2023-02-01T04:49:47;5.20;;;1.65;;
36651;SDS011;53334;51.976;20.144;2023-02-01T04:52:20;6.22;;;2.13;;
36651;SDS011;53334;51.976;20.144;2023-02-01T04:54:53;4.93;;;1.52;;
36651;SDS011;53334;51.976;20.144;2023-02-01T04:57:31;5.15;;;1.70;;
36651;SDS011;53334;51.976;20.144;2023-02-01T05:00:05;5.75;;;1.30;;
36651;SDS011;53334;51.976;20.144;2023-02-01T05:02:41;2.65;;;1.20;;
36651;SDS011;53334;51.976;20.144;2023-02-01T05:05:15;4.35;;;1.50;;
36651;SDS011;53334;51.976;20.144;2023-02-01T05:07:48;4.63;;;1.13;;
36651;SDS011;53334;51.976;20.144;2023-02-01T05:10:21;5.43;;;1.63;;
36651;SDS011;53334;51.976;20.144;2023-02-01T05:12:57;5.40;;;1.45;;
36651;SDS011;53334;51.976;20.144;2023-02-01T05:15:53;4.18;;;1.60;;
36651;SDS011;53334;51.976;20.144;2023-02-01T05:18:26;3.45;;;1.33;;
36651;SDS011;53334;51.976;20.144;2023-02-01T05:21:00;6.93;;;1.75;;
36651;SDS011;53334;51.976;20.144;2023-02-01T05:23:33;6.43;;;1.20;;
36651;SDS011;53334;51.976;20.144;2023-02-01T05:26:26;4.80;;;1.33;;
36651;SDS011;53334;51.976;20.144;2023-02-01T05:29:01;5.90;;;1.90;;
36651;SDS011;53334;51.976;20.144;2023-02-01T05:31:35;13.38;;;1.52;;
36651;SDS011;53334;51.976;20.144;2023-02-01T05:34:09;5.38;;;1.80;;
36651;SDS011;53334;51.976;20.144;2023-02-01T05:36:42;4.63;;;1.33;;
36651;SDS011;53334;51.976;20.144;2023-02-01T05:39:16;10.05;;;1.85;;
36651;SDS011;53334;51.976;20.144;2023-02-01T05:41:49;2.92;;;1.58;;
36651;SDS011;53334;51.976;20.144;2023-02-01T05:44:24;5.70;;;1.65;;
36651;SDS011;53334;51.976;20.144;2023-02-01T05:46:57;11.25;;;1.65;;
36651;SDS011;53334;51.976;20.144;2023-02-01T05:49:30;3.30;;;1.30;;
36651;SDS011;53334;51.976;20.144;2023-02-01T05:52:04;4.40;;;1.75;;
36651;SDS011;53334;51.976;20.144;2023-02-01T05:57:11;2.88;;;1.25;;
36651;SDS011;53334;51.976;20.144;2023-02-01T05:59:46;10.85;;;2.50;;
36651;SDS011;53334;51.976;20.144;2023-02-01T06:02:20;12.63;;;2.22;;
36651;SDS011;53334;51.976;20.144;2023-02-01T06:04:55;10.77;;;1.42;;
36651;SDS011;53334;51.976;20.144;2023-02-01T06:07:28;4.75;;;2.22;;
36651;SDS011;53334;51.976;20.144;2023-02-01T06:10:04;4.55;;;1.50;;
36651;SDS011;53334;51.976;20.144;2023-02-01T06:12:38;5.28;;;1.52;;
36651;SDS011;53334;51.976;20.144;2023-02-01T06:15:12;8.80;;;1.23;;
36651;SDS011;53334;51.976;20.144;2023-02-01T06:17:47;6.90;;;1.50;;
36651;SDS011;53334;51.976;20.144;2023-02-01T06:20:20;4.38;;;2.13;;
36651;SDS011;53334;51.976;20.144;2023-02-01T06:22:54;10.35;;;2.03;;
36651;SDS011;53334;51.976;20.144;2023-02-01T06:25:28;8.35;;;2.28;;
36651;SDS011;53334;51.976;20.144;2023-02-01T06:28:01;6.40;;;2.08;;
36651;SDS011;53334;51.976;20.144;2023-02-01T06:30:38;9.50;;;2.60;;
36651;SDS011;53334;51.976;20.144;2023-02-01T06:33:12;2.65;;;1.48;;
36651;SDS011;53334;51.976;20.144;2023-02-01T06:35:47;8.75;;;2.33;;
36651;SDS011;53334;51.976;20.144;2023-02-01T06:38:20;5.47;;;2.22;;
36651;SDS011;53334;51.976;20.144;2023-02-01T06:40:53;6.82;;;1.73;;
36651;SDS011;53334;51.976;20.144;2023-02-01T06:43:28;8.23;;;1.83;;
36651;SDS011;53334;51.976;20.144;2023-02-01T06:46:03;4.75;;;2.17;;
36651;SDS011;53334;51.976;20.144;2023-02-01T06:48:38;4.47;;;2.10;;
36651;SDS011;53334;51.976;20.144;2023-02-01T06:51:21;7.45;;;2.35;;
36651;SDS011;53334;51.976;20.144;2023-02-01T06:56:28;5.80;;;2.58;;
36651;SDS011;53334;51.976;20.144;2023-02-01T06:59:03;6.85;;;2.70;;
36651;SDS011;53334;51.976;20.144;2023-02-01T07:01:38;4.82;;;2.10;;
36651;SDS011;53334;51.976;20.144;2023-02-01T07:04:12;8.07;;;2.70;;
36651;SDS011;53334;51.976;20.144;2023-02-01T07:06:45;12.10;;;2.75;;
36651;SDS011;53334;51.976;20.144;2023-02-01T07:09:19;3.65;;;2.00;;
36651;SDS011;53334;51.976;20.144;2023-02-01T07:11:52;4.28;;;2.05;;
36651;SDS011;53334;51.976;20.144;2023-02-01T07:14:26;8.10;;;2.30;;
36651;SDS011;53334;51.976;20.144;2023-02-01T07:17:00;10.05;;;2.33;;
36651;SDS011;53334;51.976;20.144;2023-02-01T07:19:34;9.40;;;2.20;;
36651;SDS011;53334;51.976;20.144;2023-02-01T07:22:07;4.35;;;2.30;;
36651;SDS011;53334;51.976;20.144;2023-02-01T07:24:40;4.88;;;1.90;;
36651;SDS011;53334;51.976;20.144;2023-02-01T07:27:14;4.28;;;2.10;;
36651;SDS011;53334;51.976;20.144;2023-02-01T07:29:47;13.48;;;2.35;;
36651;SDS011;53334;51.976;20.144;2023-02-01T07:32:22;5.22;;;2.70;;
36651;SDS011;53334;51.976;20.144;2023-02-01T07:34:55;6.70;;;2.42;;
36651;SDS011;53334;51.976;20.144;2023-02-01T07:40:02;7.78;;;1.98;;
36651;SDS011;53334;51.976;20.144;2023-02-01T07:42:36;5.32;;;2.30;;
36651;SDS011;53334;51.976;20.144;2023-02-01T07:45:10;8.45;;;1.95;;
36651;SDS011;53334;51.976;20.144;2023-02-01T07:47:53;9.77;;;2.60;;
36651;SDS011;53334;51.976;20.144;2023-02-01T07:50:26;6.78;;;2.50;;
36651;SDS011;53334;51.976;20.144;2023-02-01T07:53:00;10.57;;;2.00;;
36651;SDS011;53334;51.976;20.144;2023-02-01T07:55:34;6.85;;;2.30;;
36651;SDS011;53334;51.976;20.144;2023-02-01T07:58:09;9.32;;;2.30;;
36651;SDS011;53334;51.976;20.144;2023-02-01T08:00:43;12.50;;;2.20;;
36651;SDS011;53334;51.976;20.144;2023-02-01T08:03:36;15.38;;;2.47;;
36651;SDS011;53334;51.976;20.144;2023-02-01T08:06:09;5.70;;;2.72;;
36651;SDS011;53334;51.976;20.144;2023-02-01T08:08:43;13.02;;;2.33;;
36651;SDS011;53334;51.976;20.144;2023-02-01T08:11:18;18.08;;;4.65;;
36651;SDS011;53334;51.976;20.144;2023-02-01T08:13:55;12.40;;;4.07;;
36651;SDS011;53334;51.976;20.144;2023-02-01T08:16:30;23.83;;;6.30;;
36651;SDS011;53334;51.976;20.144;2023-02-01T08:19:07;14.02;;;5.55;;
36651;SDS011;53334;51.976;20.144;2023-02-01T08:21:40;13.65;;;5.72;;
36651;SDS011;53334;51.976;20.144;2023-02-01T08:24:13;14.32;;;5.43;;
36651;SDS011;53334;51.976;20.144;2023-02-01T08:29:20;12.80;;;5.50;;
36651;SDS011;53334;51.976;20.144;2023-02-01T08:31:54;11.52;;;4.93;;
36651;SDS011;53334;51.976;20.144;2023-02-01T08:34:29;10.10;;;5.03;;
36651;SDS011;53334;51.976;20.144;2023-02-01T08:37:06;11.75;;;4.40;;
36651;SDS011;53334;51.976;20.144;2023-02-01T08:39:39;9.45;;;3.92;;
36651;SDS011;53334;51.976;20.144;2023-02-01T08:42:18;10.20;;;3.78;;
36651;SDS011;53334;51.976;20.144;2023-02-01T08:45:09;8.63;;;3.95;;
36651;SDS011;53334;51.976;20.144;2023-02-01T08:47:43;16.00;;;5.13;;
36651;SDS011;53334;51.976;20.144;2023-02-01T08:50:19;8.77;;;3.55;;
36651;SDS011;53334;51.976;20.144;2023-02-01T08:52:54;10.13;;;3.35;;
36651;SDS011;53334;51.976;20.144;2023-02-01T08:58:01;6.07;;;2.92;;
36651;SDS011;53334;51.976;20.144;2023-02-01T09:00:34;10.15;;;2.55;;
36651;SDS011;53334;51.976;20.144;2023-02-01T09:03:08;4.35;;;2.47;;
36651;SDS011;53334;51.976;20.144;2023-02-01T09:05:44;15.57;;;3.03;;
36651;SDS011;53334;51.976;20.144;2023-02-01T09:08:20;8.55;;;2.83;;
36651;SDS011;53334;51.976;20.144;2023-02-01T09:10:57;12.15;;;2.78;;
36651;SDS011;53334;51.976;20.144;2023-02-01T09:13:34;4.53;;;2.35;;
36651;SDS011;53334;51.976;20.144;2023-02-01T09:16:07;11.45;;;3.03;;
36651;SDS011;53334;51.976;20.144;2023-02-01T09:18:41;12.45;;;2.42;;
36651;SDS011;53334;51.976;20.144;2023-02-01T09:21:33;7.75;;;2.28;;
36651;SDS011;53334;51.976;20.144;2023-02-01T09:24:08;3.95;;;2.83;;
36651;SDS011;53334;51.976;20.144;2023-02-01T09:26:43;6.03;;;2.75;;
36651;SDS011;53334;51.976;20.144;2023-02-01T09:29:16;6.82;;;2.65;;
36651;SDS011;53334;51.976;20.144;2023-02-01T09:31:50;8.93;;;2.95;;
36651;SDS011;53334;51.976;20.144;2023-02-01T09:34:34;9.00;;;3.60;;
36651;SDS011;53334;51.976;20.144;2023-02-01T09:37:09;11.13;;;3.38;;
36651;SDS011;53334;51.976;20.144;2023-02-01T09:39:42;8.13;;;3.05;;
36651;SDS011;53334;51.976;20.144;2023-02-01T09:42:21;9.85;;;2.90;;
36651;SDS011;53334;51.976;20.144;2023-02-01T09:45:06;13.70;;;3.10;;
36651;SDS011;53334;51.976;20.144;2023-02-01T09:47:51;7.00;;;3.15;;
36651;SDS011;53334;51.976;20.144;2023-02-01T09:50:29;7.47;;;2.88;;
36651;SDS011;53334;51.976;20.144;2023-02-01T09:53:11;8.68;;;3.28;;
36651;SDS011;53334;51.976;20.144;2023-02-01T09:55:50;7.88;;;2.97;;
36651;SDS011;53334;51.976;20.144;2023-02-01T09:58:27;13.38;;;3.10;;
36651;SDS011;53334;51.976;20.144;2023-02-01T10:01:09;8.40;;;2.30;;
36651;SDS011;53334;51.976;20.144;2023-02-01T10:03:47;14.05;;;3.05;;
36651;SDS011;53334;51.976;20.144;2023-02-01T10:06:27;8.60;;;2.55;;
36651;SDS011;53334;51.976;20.144;2023-02-01T10:12:23;8.43;;;3.13;;
36651;SDS011;53334;51.976;20.144;2023-02-01T10:15:22;8.98;;;3.13;;
36651;SDS011;53334;51.976;20.144;2023-02-01T10:18:14;11.27;;;3.03;;
36651;SDS011;53334;51.976;20.144;2023-02-01T10:23:38;6.10;;;2.53;;
36651;SDS011;53334;51.976;20.144;2023-02-01T10:26:24;5.70;;;2.70;;
36651;SDS011;53334;51.976;20.144;2023-02-01T10:29:00;23.52;;;3.58;;
36651;SDS011;53334;51.976;20.144;2023-02-01T10:31:36;6.50;;;2.63;;
36651;SDS011;53334;51.976;20.144;2023-02-01T10:34:13;6.47;;;2.35;;
36651;SDS011;53334;51.976;20.144;2023-02-01T10:36:53;6.00;;;2.05;;
36651;SDS011;53334;51.976;20.144;2023-02-01T10:39:28;9.90;;;2.55;;
36651;SDS011;53334;51.976;20.144;2023-02-01T10:42:03;5.05;;;2.47;;
36651;SDS011;53334;51.976;20.144;2023-02-01T10:44:36;7.18;;;2.30;;
36651;SDS011;53334;51.976;20.144;2023-02-01T10:47:16;8.55;;;2.47;;
36651;SDS011;53334;51.976;20.144;2023-02-01T10:49:52;14.45;;;2.17;;
36651;SDS011;53334;51.976;20.144;2023-02-01T10:52:33;5.55;;;2.85;;
36651;SDS011;53334;51.976;20.144;2023-02-01T10:55:28;6.97;;;3.15;;
36651;SDS011;53334;51.976;20.144;2023-02-01T10:58:07;5.82;;;2.30;;
36651;SDS011;53334;51.976;20.144;2023-02-01T11:00:48;4.28;;;2.10;;
36651;SDS011;53334;51.976;20.144;2023-02-01T11:03:30;4.25;;;1.95;;
36651;SDS011;53334;51.976;20.144;2023-02-01T11:06:17;4.82;;;2.45;;
36651;SDS011;53334;51.976;20.144;2023-02-01T11:08:59;6.88;;;2.30;;
36651;SDS011;53334;51.976;20.144;2023-02-01T11:11:52;7.18;;;2.47;;
36651;SDS011;53334;51.976;20.144;2023-02-01T11:14:37;6.00;;;2.25;;
36651;SDS011;53334;51.976;20.144;2023-02-01T11:17:17;9.50;;;2.40;;
36651;SDS011;53334;51.976;20.144;2023-02-01T11:19:58;6.32;;;2.10;;
36651;SDS011;53334;51.976;20.144;2023-02-01T11:22:32;8.52;;;2.38;;
36651;SDS011;53334;51.976;20.144;2023-02-01T11:25:07;5.10;;;2.13;;
36651;SDS011;53334;51.976;20.144;2023-02-01T11:27:43;6.00;;;2.35;;
36651;SDS011;53334;51.976;20.144;2023-02-01T11:30:30;4.05;;;2.30;;
36651;SDS011;53334;51.976;20.144;2023-02-01T11:33:05;4.05;;;2.28;;
36651;SDS011;53334;51.976;20.144;2023-02-01T11:35:42;5.25;;;2.08;;
36651;SDS011;53334;51.976;20.144;2023-02-01T11:38:21;4.43;;;2.25;;
36651;SDS011;53334;51.976;20.144;2023-02-01T11:40:55;4.80;;;1.90;;
36651;SDS011;53334;51.976;20.144;2023-02-01T11:43:50;5.75;;;2.47;;
36651;SDS011;53334;51.976;20.144;2023-02-01T11:46:28;5.47;;;2.05;;
36651;SDS011;53334;51.976;20.144;2023-02-01T11:49:13;3.65;;;2.15;;
36651;SDS011;53334;51.976;20.144;2023-02-01T11:51:59;6.05;;;2.20;;
36651;SDS011;53334;51.976;20.144;2023-02-01T11:54:45;4.68;;;2.03;;
36651;SDS011;53334;51.976;20.144;2023-02-01T11:57:38;5.30;;;2.22;;
36651;SDS011;53334;51.976;20.144;2023-02-01T12:00:32;7.95;;;2.70;;
36651;SDS011;53334;51.976;20.144;2023-02-01T12:03:27;5.93;;;2.53;;
36651;SDS011;53334;51.976;20.144;2023-02-01T12:06:23;5.97;;;2.92;;
36651;SDS011;53334;51.976;20.144;2023-02-01T12:09:12;7.15;;;3.38;;
36651;SDS011;53334;51.976;20.144;2023-02-01T12:11:56;5.00;;;3.25;;
36651;SDS011;53334;51.976;20.144;2023-02-01T12:14:46;5.27;;;3.03;;
36651;SDS011;53334;51.976;20.144;2023-02-01T12:17:47;9.20;;;3.10;;
36651;SDS011;53334;51.976;20.144;2023-02-01T12:20:36;6.72;;;2.75;;
36651;SDS011;53334;51.976;20.144;2023-02-01T12:23:32;10.15;;;3.47;;
36651;SDS011;53334;51.976;20.144;2023-02-01T12:26:29;7.70;;;2.88;;
36651;SDS011;53334;51.976;20.144;2023-02-01T12:29:17;9.90;;;3.30;;
36651;SDS011;53334;51.976;20.144;2023-02-01T12:35:01;10.18;;;3.58;;
36651;SDS011;53334;51.976;20.144;2023-02-01T12:38:03;6.32;;;3.20;;
36651;SDS011;53334;51.976;20.144;2023-02-01T12:40:51;6.72;;;3.53;;
36651;SDS011;53334;51.976;20.144;2023-02-01T12:43:36;7.90;;;3.45;;
36651;SDS011;53334;51.976;20.144;2023-02-01T12:46:15;6.88;;;3.90;;
36651;SDS011;53334;51.976;20.144;2023-02-01T12:48:55;4.38;;;3.28;;
36651;SDS011;53334;51.976;20.144;2023-02-01T12:51:33;6.88;;;3.60;;
36651;SDS011;53334;51.976;20.144;2023-02-01T12:54:11;8.60;;;3.50;;
36651;SDS011;53334;51.976;20.144;2023-02-01T12:56:49;7.38;;;3.80;;
36651;SDS011;53334;51.976;20.144;2023-02-01T12:59:28;8.20;;;3.70;;
36651;SDS011;53334;51.976;20.144;2023-02-01T13:02:11;8.40;;;3.53;;
36651;SDS011;53334;51.976;20.144;2023-02-01T13:04:52;7.88;;;3.47;;
36651;SDS011;53334;51.976;20.144;2023-02-01T13:07:34;6.93;;;3.85;;
36651;SDS011;53334;51.976;20.144;2023-02-01T13:10:15;11.02;;;4.10;;
36651;SDS011;53334;51.976;20.144;2023-02-01T13:12:53;6.28;;;3.20;;
36651;SDS011;53334;51.976;20.144;2023-02-01T13:15:30;6.00;;;3.25;;
36651;SDS011;53334;51.976;20.144;2023-02-01T13:18:11;6.50;;;3.47;;
36651;SDS011;53334;51.976;20.144;2023-02-01T13:20:51;6.38;;;2.65;;
36651;SDS011;53334;51.976;20.144;2023-02-01T13:23:29;5.55;;;3.13;;
36651;SDS011;53334;51.976;20.144;2023-02-01T13:26:07;8.27;;;3.22;;
36651;SDS011;53334;51.976;20.144;2023-02-01T13:28:42;5.68;;;3.85;;
36651;SDS011;53334;51.976;20.144;2023-02-01T13:37:35;5.63;;;2.67;;
36651;SDS011;53334;51.976;20.144;2023-02-01T13:40:36;5.40;;;2.88;;
36651;SDS011;53334;51.976;20.144;2023-02-01T13:43:14;6.97;;;3.20;;
36651;SDS011;53334;51.976;20.144;2023-02-01T13:45:53;4.95;;;2.83;;
36651;SDS011;53334;51.976;20.144;2023-02-01T13:48:32;5.63;;;3.03;;
36651;SDS011;53334;51.976;20.144;2023-02-01T13:51:12;4.70;;;2.97;;
36651;SDS011;53334;51.976;20.144;2023-02-01T13:53:47;5.53;;;3.25;;
36651;SDS011;53334;51.976;20.144;2023-02-01T13:56:21;4.88;;;2.75;;
36651;SDS011;53334;51.976;20.144;2023-02-01T13:58:58;5.45;;;2.72;;
36651;SDS011;53334;51.976;20.144;2023-02-01T14:08:41;4.28;;;2.90;;
36651;SDS011;53334;51.976;20.144;2023-02-01T14:11:40;8.48;;;2.42;;
36651;SDS011;53334;51.976;20.144;2023-02-01T14:17:29;4.45;;;2.63;;
36651;SDS011;53334;51.976;20.144;2023-02-01T14:23:29;4.07;;;2.90;;
36651;SDS011;53334;51.976;20.144;2023-02-01T14:26:07;8.00;;;3.20;;
36651;SDS011;53334;51.976;20.144;2023-02-01T14:28:49;7.57;;;3.05;;
36651;SDS011;53334;51.976;20.144;2023-02-01T14:31:48;7.65;;;2.72;;
36651;SDS011;53334;51.976;20.144;2023-02-01T14:34:30;6.75;;;2.97;;
36651;SDS011;53334;51.976;20.144;2023-02-01T14:37:07;13.35;;;2.63;;
36651;SDS011;53334;51.976;20.144;2023-02-01T14:39:53;11.98;;;2.75;;
36651;SDS011;53334;51.976;20.144;2023-02-01T14:42:30;11.68;;;2.92;;
36651;SDS011;53334;51.976;20.144;2023-02-01T14:48:45;7.97;;;2.67;;
36651;SDS011;53334;51.976;20.144;2023-02-01T14:51:19;8.70;;;2.58;;
36651;SDS011;53334;51.976;20.144;2023-02-01T14:53:54;5.53;;;2.58;;
36651;SDS011;53334;51.976;20.144;2023-02-01T14:56:28;5.95;;;2.63;;
36651;SDS011;53334;51.976;20.144;2023-02-01T14:59:06;9.50;;;3.38;;
36651;SDS011;53334;51.976;20.144;2023-02-01T15:01:46;9.07;;;3.05;;
36651;SDS011;53334;51.976;20.144;2023-02-01T15:04:25;11.77;;;3.60;;
36651;SDS011;53334;51.976;20.144;2023-02-01T15:07:04;11.02;;;3.03;;
36651;SDS011;53334;51.976;20.144;2023-02-01T15:09:42;10.88;;;3.22;;
36651;SDS011;53334;51.976;20.144;2023-02-01T15:12:22;4.82;;;2.70;;
36651;SDS011;53334;51.976;20.144;2023-02-01T15:15:12;13.52;;;3.25;;
36651;SDS011;53334;51.976;20.144;2023-02-01T15:17:52;12.23;;;3.70;;
36651;SDS011;53334;51.976;20.144;2023-02-01T15:20:28;12.02;;;3.08;;
36651;SDS011;53334;51.976;20.144;2023-02-01T15:23:04;35.55;;;3.35;;
36651;SDS011;53334;51.976;20.144;2023-02-01T15:25:47;21.58;;;2.75;;
36651;SDS011;53334;51.976;20.144;2023-02-01T15:28:24;8.43;;;2.95;;
36651;SDS011;53334;51.976;20.144;2023-02-01T15:30:59;17.00;;;2.72;;
36651;SDS011;53334;51.976;20.144;2023-02-01T15:33:35;11.43;;;2.60;;
36651;SDS011;53334;51.976;20.144;2023-02-01T15:36:10;9.73;;;2.75;;
36651;SDS011;53334;51.976;20.144;2023-02-01T15:38:50;6.45;;;3.28;;
36651;SDS011;53334;51.976;20.144;2023-02-01T15:41:57;7.68;;;2.65;;
36651;SDS011;53334;51.976;20.144;2023-02-01T15:44:34;4.60;;;2.33;;
36651;SDS011;53334;51.976;20.144;2023-02-01T15:47:13;17.00;;;3.15;;
36651;SDS011;53334;51.976;20.144;2023-02-01T15:49:50;12.82;;;2.50;;
36651;SDS011;53334;51.976;20.144;2023-02-01T15:52:26;10.75;;;3.00;;
36651;SDS011;53334;51.976;20.144;2023-02-01T15:55:18;5.13;;;2.78;;
36651;SDS011;53334;51.976;20.144;2023-02-01T15:57:56;12.30;;;3.20;;
36651;SDS011;53334;51.976;20.144;2023-02-01T16:00:30;8.05;;;4.32;;
36651;SDS011;53334;51.976;20.144;2023-02-01T16:03:21;14.73;;;4.07;;
36651;SDS011;53334;51.976;20.144;2023-02-01T16:05:59;7.63;;;3.47;;
36651;SDS011;53334;51.976;20.144;2023-02-01T16:08:34;11.98;;;3.88;;
36651;SDS011;53334;51.976;20.144;2023-02-01T16:11:20;6.43;;;3.15;;
36651;SDS011;53334;51.976;20.144;2023-02-01T16:13:56;12.80;;;3.65;;
36651;SDS011;53334;51.976;20.144;2023-02-01T16:16:30;19.10;;;3.97;;
36651;SDS011;53334;51.976;20.144;2023-02-01T16:19:03;21.65;;;3.78;;
36651;SDS011;53334;51.976;20.144;2023-02-01T16:21:36;8.70;;;3.42;;
36651;SDS011;53334;51.976;20.144;2023-02-01T16:24:10;9.60;;;3.20;;
36651;SDS011;53334;51.976;20.144;2023-02-01T16:26:44;8.27;;;3.55;;
36651;SDS011;53334;51.976;20.144;2023-02-01T16:29:18;21.20;;;3.88;;